createdAt,value
2017-11-17T00:01:04.270Z,5.00
2017-11-17T00:03:32.583Z,4.90
2017-11-17T00:06:00.183Z,4.90
2017-11-17T00:08:27.734Z,5.00
2017-11-17T00:10:55.293Z,5.00
2017-11-17T00:13:22.891Z,5.00
2017-11-17T00:15:50.437Z,5.00
2017-11-17T00:18:18.906Z,5.00
2017-11-17T00:20:46.446Z,5.00
2017-11-17T00:23:13.987Z,5.00
2017-11-17T00:25:41.584Z,5.00
2017-11-17T00:28:09.131Z,5.10
2017-11-17T00:30:36.752Z,5.10
2017-11-17T00:33:04.290Z,5.20
2017-11-17T00:35:32.603Z,5.30
2017-11-17T00:38:00.187Z,5.30
2017-11-17T00:40:27.758Z,5.40
2017-11-17T00:42:55.719Z,5.50
2017-11-17T00:45:23.275Z,5.50
2017-11-17T00:47:50.812Z,5.50
2017-11-17T00:50:18.427Z,5.60
2017-11-17T00:52:45.983Z,5.60
2017-11-17T00:55:14.379Z,5.70
2017-11-17T00:57:41.927Z,5.70
2017-11-17T01:00:10.337Z,5.80
2017-11-17T01:02:37.937Z,5.70
2017-11-17T01:05:05.553Z,5.70
2017-11-17T01:07:33.158Z,5.80
2017-11-17T01:10:00.833Z,5.80
2017-11-17T01:12:29.169Z,5.90
2017-11-17T01:14:56.760Z,5.90
2017-11-17T01:17:24.302Z,5.90
2017-11-17T01:19:51.891Z,5.90
2017-11-17T01:22:20.394Z,5.90
2017-11-17T01:24:47.998Z,5.90
2017-11-17T01:27:15.577Z,6.00
2017-11-17T01:29:43.140Z,5.90
2017-11-17T01:32:10.718Z,6.00
2017-11-17T01:34:38.257Z,6.00
2017-11-17T01:37:05.817Z,5.90
2017-11-17T01:39:33.403Z,6.00
2017-11-17T01:42:01.717Z,6.00
2017-11-17T01:44:29.302Z,6.00
2017-11-17T01:46:56.856Z,6.00
2017-11-17T01:49:24.409Z,6.00
2017-11-17T01:51:52.010Z,6.00
2017-11-17T01:54:19.553Z,6.00
2017-11-17T01:56:47.143Z,6.00
2017-11-17T01:59:14.687Z,6.00
2017-11-17T02:01:42.986Z,6.00
2017-11-17T02:04:10.575Z,6.00
2017-11-17T02:06:38.111Z,6.00
2017-11-17T02:09:05.724Z,6.10
2017-11-17T02:11:33.297Z,6.10
2017-11-17T02:14:01.037Z,6.00
2017-11-17T02:16:28.643Z,6.10
2017-11-17T02:18:56.343Z,6.10
2017-11-17T02:21:24.222Z,6.10
2017-11-17T02:23:51.778Z,6.10
2017-11-17T02:26:19.330Z,6.10
2017-11-17T02:28:47.049Z,6.10
2017-11-17T02:31:15.364Z,6.10
2017-11-17T02:33:43.346Z,6.10
2017-11-17T02:36:10.907Z,6.10
2017-11-17T02:38:38.545Z,6.10
2017-11-17T02:41:06.138Z,6.10
2017-11-17T02:43:33.696Z,6.10
2017-11-17T02:46:01.604Z,6.10
2017-11-17T02:48:29.164Z,6.10
2017-11-17T02:50:57.498Z,6.10
2017-11-17T02:53:25.095Z,6.10
2017-11-17T02:55:53.427Z,6.10
2017-11-17T02:58:21.402Z,6.10
2017-11-17T03:00:48.964Z,6.10
2017-11-17T03:03:16.515Z,6.20
2017-11-17T03:05:44.238Z,6.20
2017-11-17T03:08:11.781Z,6.10
2017-11-17T03:10:39.705Z,6.20
2017-11-17T03:13:07.259Z,6.20
2017-11-17T03:15:34.807Z,6.20
2017-11-17T03:18:02.558Z,6.20
2017-11-17T03:20:30.150Z,6.20
2017-11-17T03:22:57.779Z,6.20
2017-11-17T03:25:25.319Z,6.20
2017-11-17T03:27:53.610Z,6.30
2017-11-17T03:30:21.196Z,6.20
2017-11-17T03:32:48.758Z,6.30
2017-11-17T03:35:16.338Z,6.30
2017-11-17T03:37:43.900Z,6.30
2017-11-17T03:40:11.574Z,6.30
2017-11-17T03:42:39.926Z,6.30
2017-11-17T03:45:07.471Z,6.30
2017-11-17T03:47:35.061Z,6.30
2017-11-17T03:50:02.624Z,6.30
2017-11-17T03:52:30.182Z,6.30
2017-11-17T03:54:57.772Z,6.30
2017-11-17T03:57:25.318Z,6.40
2017-11-17T03:59:52.902Z,6.30
2017-11-17T04:02:20.458Z,6.30
2017-11-17T04:04:48.024Z,6.40
2017-11-17T04:07:15.623Z,6.40
2017-11-17T04:09:43.170Z,6.40
2017-11-17T04:12:10.834Z,6.40
2017-11-17T04:14:38.399Z,6.30
2017-11-17T04:17:05.943Z,6.30
2017-11-17T04:19:33.530Z,6.30
2017-11-17T04:22:01.084Z,6.40
2017-11-17T04:24:28.678Z,6.40
2017-11-17T04:26:56.999Z,6.40
2017-11-17T04:29:24.540Z,6.40
2017-11-17T04:31:52.123Z,6.40
2017-11-17T04:34:19.683Z,6.40
2017-11-17T04:36:47.261Z,6.40
2017-11-17T04:39:14.811Z,6.40
2017-11-17T04:41:42.363Z,6.40
2017-11-17T04:44:09.950Z,6.40
2017-11-17T04:46:37.506Z,6.40
2017-11-17T04:49:05.091Z,6.40
2017-11-17T04:51:32.630Z,6.40
2017-11-17T04:54:00.190Z,6.40
2017-11-17T04:56:28.547Z,6.40
2017-11-17T04:58:56.094Z,6.40
2017-11-17T05:01:23.915Z,6.40
2017-11-17T05:03:52.227Z,6.40
2017-11-17T05:06:19.767Z,6.40
2017-11-17T05:08:47.362Z,6.40
2017-11-17T05:11:14.923Z,6.40
2017-11-17T05:13:42.649Z,6.40
2017-11-17T05:16:10.232Z,6.40
2017-11-17T05:18:37.792Z,6.40
2017-11-17T05:21:05.372Z,6.40
2017-11-17T05:23:32.942Z,6.40
2017-11-17T05:26:02.047Z,6.40
2017-11-17T05:28:29.631Z,6.40
2017-11-17T05:30:57.954Z,6.40
2017-11-17T05:33:25.726Z,6.40
2017-11-17T05:35:53.285Z,6.40
2017-11-17T05:38:20.843Z,6.40
2017-11-17T05:40:51.194Z,6.40
2017-11-17T05:43:19.512Z,6.40
2017-11-17T05:45:47.093Z,6.40
2017-11-17T05:48:15.995Z,6.40
2017-11-17T05:50:43.547Z,6.40
2017-11-17T05:53:11.170Z,6.40
2017-11-17T05:55:38.728Z,6.40
2017-11-17T05:58:06.281Z,6.40
2017-11-17T06:00:34.669Z,6.40
2017-11-17T06:03:02.228Z,6.40
2017-11-17T06:05:29.860Z,6.40
2017-11-17T06:07:58.203Z,6.40
2017-11-17T06:10:25.758Z,6.40
2017-11-17T06:12:53.340Z,6.40
2017-11-17T06:15:20.900Z,6.40
2017-11-17T06:17:48.554Z,6.40
2017-11-17T06:20:16.133Z,6.40
2017-11-17T06:22:43.713Z,6.40
2017-11-17T06:25:12.035Z,6.40
2017-11-17T06:27:39.630Z,6.40
2017-11-17T06:30:07.166Z,6.40
2017-11-17T06:32:34.747Z,6.40
2017-11-17T06:35:02.332Z,6.40
2017-11-17T06:37:30.643Z,6.40
2017-11-17T06:39:58.209Z,6.40
2017-11-17T06:42:25.841Z,6.40
2017-11-17T06:44:53.391Z,6.40
2017-11-17T06:47:20.999Z,6.50
2017-11-17T06:49:48.759Z,6.40
2017-11-17T06:52:16.310Z,6.50
2017-11-17T06:54:43.856Z,6.40
2017-11-17T06:57:11.438Z,6.50
2017-11-17T06:59:38.992Z,6.50
2017-11-17T07:02:06.611Z,6.50
2017-11-17T07:04:34.209Z,6.50
2017-11-17T07:07:01.768Z,6.50
2017-11-17T07:09:29.337Z,6.50
2017-11-17T07:11:56.997Z,6.60
2017-11-17T07:14:24.596Z,6.60
2017-11-17T07:16:52.932Z,6.60
2017-11-17T07:19:20.539Z,6.60
2017-11-17T07:21:48.870Z,6.60
2017-11-17T07:24:16.425Z,6.60
2017-11-17T07:26:44.115Z,6.60
2017-11-17T07:29:11.700Z,6.70
2017-11-17T07:31:39.315Z,6.70
2017-11-17T07:34:06.886Z,6.70
2017-11-17T07:36:34.444Z,6.70
2017-11-17T07:39:03.547Z,6.70
2017-11-17T07:41:31.094Z,6.70
2017-11-17T07:43:58.691Z,6.70
2017-11-17T07:46:26.293Z,6.80
2017-11-17T07:48:54.035Z,6.80
2017-11-17T07:51:21.582Z,6.80
2017-11-17T07:53:49.904Z,6.80
2017-11-17T07:56:17.609Z,6.80
2017-11-17T07:58:45.161Z,6.80
2017-11-17T08:01:13.595Z,6.80
2017-11-17T08:03:41.153Z,6.80
2017-11-17T08:06:08.708Z,6.90
2017-11-17T08:08:36.315Z,6.90
2017-11-17T08:11:03.868Z,6.90
2017-11-17T08:13:31.737Z,7.00
2017-11-17T08:15:59.315Z,7.00
2017-11-17T08:18:37.898Z,7.00
2017-11-17T08:21:05.457Z,7.00
2017-11-17T08:23:33.019Z,7.00
2017-11-17T08:26:00.609Z,7.00
2017-11-17T08:28:28.172Z,7.00
2017-11-17T08:30:56.530Z,7.00
2017-11-17T08:33:24.076Z,7.00
2017-11-17T08:35:51.615Z,7.00
2017-11-17T08:38:19.234Z,7.10
2017-11-17T08:40:47.543Z,7.10
2017-11-17T08:43:15.134Z,7.10
2017-11-17T08:45:42.806Z,7.10
2017-11-17T08:48:10.410Z,7.10
2017-11-17T08:50:37.969Z,7.10
2017-11-17T08:53:05.519Z,7.10
2017-11-17T08:55:33.099Z,7.10
2017-11-17T08:58:00.671Z,7.20
2017-11-17T09:00:28.491Z,7.20
2017-11-17T09:02:56.188Z,7.20
2017-11-17T09:05:23.752Z,7.20
2017-11-17T09:07:51.357Z,7.20
2017-11-17T09:10:18.912Z,7.20
2017-11-17T09:12:48.123Z,7.20
2017-11-17T09:15:16.451Z,7.20
2017-11-17T09:17:44.019Z,7.20
2017-11-17T09:20:11.596Z,7.20
2017-11-17T09:22:39.156Z,7.20
2017-11-17T09:25:06.854Z,7.20
2017-11-17T09:27:35.176Z,7.30
2017-11-17T09:30:02.788Z,7.20
2017-11-17T09:32:31.267Z,7.40
2017-11-17T09:34:59.590Z,7.40
2017-11-17T09:37:27.231Z,7.40
2017-11-17T09:39:55.518Z,7.50
2017-11-17T09:42:23.057Z,7.40
2017-11-17T09:44:50.643Z,7.50
2017-11-17T09:47:18.353Z,7.50
2017-11-17T09:49:46.226Z,7.60
2017-11-17T09:52:13.781Z,7.60
2017-11-17T09:54:42.110Z,7.70
2017-11-17T09:57:09.688Z,7.60
2017-11-17T09:59:37.382Z,7.60
2017-11-17T10:02:05.752Z,7.60
2017-11-17T10:04:33.378Z,7.60
2017-11-17T10:07:00.942Z,7.70
2017-11-17T10:09:28.543Z,7.70
2017-11-17T10:11:56.149Z,7.70
2017-11-17T10:14:23.753Z,7.70
2017-11-17T10:16:51.308Z,7.70
2017-11-17T10:19:18.871Z,7.80
2017-11-17T10:21:46.564Z,7.80
2017-11-17T10:24:14.130Z,7.80
2017-11-17T10:26:41.893Z,7.80
2017-11-17T10:29:09.460Z,7.90
2017-11-17T10:31:37.030Z,7.80
2017-11-17T10:34:04.623Z,7.90
2017-11-17T10:36:33.607Z,7.90
2017-11-17T10:39:02.520Z,8.00
2017-11-17T10:41:30.100Z,8.10
2017-11-17T10:43:58.404Z,8.40
2017-11-17T10:46:25.984Z,8.40
2017-11-17T10:48:53.582Z,8.50
2017-11-17T10:51:21.464Z,8.50
2017-11-17T10:53:49.786Z,8.60
2017-11-17T10:56:19.227Z,8.60
2017-11-17T10:58:46.830Z,8.70
2017-11-17T11:01:14.507Z,8.70
2017-11-17T11:03:42.138Z,8.70
2017-11-17T11:06:09.693Z,8.70
2017-11-17T11:08:37.303Z,8.70
2017-11-17T11:11:10.510Z,8.80
2017-11-17T11:13:38.051Z,8.80
2017-11-17T11:16:05.667Z,8.70
2017-11-17T11:18:33.215Z,8.70
2017-11-17T11:21:01.530Z,8.70
2017-11-17T11:23:29.344Z,8.70
2017-11-17T11:25:56.901Z,8.70
2017-11-17T11:28:24.487Z,8.70
2017-11-17T11:30:52.812Z,8.70
2017-11-17T11:33:20.386Z,8.70
2017-11-17T11:35:47.970Z,8.80
2017-11-17T11:38:15.528Z,8.80
2017-11-17T11:40:43.854Z,8.70
2017-11-17T11:43:11.447Z,8.70
2017-11-17T11:45:39.757Z,8.60
2017-11-17T11:48:08.369Z,8.60
2017-11-17T11:50:35.920Z,8.60
2017-11-17T11:53:03.495Z,8.50
2017-11-17T11:55:31.074Z,8.50
2017-11-17T11:57:58.634Z,8.40
2017-11-17T12:00:26.250Z,8.30
2017-11-17T12:02:53.793Z,8.30
2017-11-17T12:05:21.352Z,8.30
2017-11-17T12:07:48.943Z,8.20
2017-11-17T12:10:16.484Z,8.20
2017-11-17T12:12:44.077Z,8.20
2017-11-17T12:15:11.622Z,8.10
2017-11-17T12:17:39.210Z,8.10
2017-11-17T12:20:06.766Z,8.10
2017-11-17T12:22:34.312Z,8.10
2017-11-17T12:25:01.904Z,8.10
2017-11-17T12:27:29.450Z,8.10
2017-11-17T12:29:57.050Z,8.10
2017-11-17T12:32:25.390Z,8.10
2017-11-17T12:34:52.945Z,8.10
2017-11-17T12:37:20.551Z,8.10
2017-11-17T12:39:48.099Z,8.20
2017-11-17T12:42:16.472Z,8.40
2017-11-17T12:44:44.060Z,8.40
2017-11-17T12:47:11.704Z,8.60
2017-11-17T12:49:40.290Z,8.80
2017-11-17T12:52:07.851Z,8.80
2017-11-17T12:54:35.445Z,8.80
2017-11-17T12:57:03.097Z,8.90
2017-11-17T12:59:30.679Z,8.80
2017-11-17T13:01:58.260Z,8.80
2017-11-17T13:04:25.892Z,8.80
2017-11-17T13:06:53.480Z,8.80
2017-11-17T13:09:21.020Z,8.70
2017-11-17T13:11:48.569Z,8.60
2017-11-17T13:14:16.165Z,8.60
2017-11-17T13:16:43.721Z,8.50
2017-11-17T13:19:12.837Z,8.30
2017-11-17T13:21:40.400Z,8.30
2017-11-17T13:24:08.752Z,8.30
2017-11-17T13:26:36.304Z,8.20
2017-11-17T13:29:03.894Z,8.20
2017-11-17T13:31:31.451Z,8.20
2017-11-17T13:33:59.759Z,8.20
2017-11-17T13:36:27.347Z,8.10
2017-11-17T13:38:54.909Z,8.10
2017-11-17T13:41:22.514Z,8.10
2017-11-17T13:43:50.839Z,8.10
2017-11-17T13:46:18.375Z,8.00
2017-11-17T13:48:45.955Z,8.10
2017-11-17T13:51:13.530Z,8.10
2017-11-17T13:53:41.135Z,8.10
2017-11-17T13:56:08.699Z,8.10
2017-11-17T13:58:36.240Z,8.10
2017-11-17T14:01:03.959Z,8.00
2017-11-17T14:03:31.510Z,8.10
2017-11-17T14:05:59.112Z,8.10
2017-11-17T14:08:27.433Z,8.10
2017-11-17T14:10:54.989Z,8.00
2017-11-17T14:13:22.570Z,8.10
2017-11-17T14:15:50.119Z,8.00
2017-11-17T14:18:17.710Z,8.00
2017-11-17T14:20:45.284Z,7.90
2017-11-17T14:23:13.626Z,7.90
2017-11-17T14:25:41.206Z,7.80
2017-11-17T14:28:08.766Z,7.80
2017-11-17T14:30:36.355Z,7.80
2017-11-17T14:33:03.911Z,7.70
2017-11-17T14:35:31.631Z,7.70
2017-11-17T14:37:59.173Z,7.60
2017-11-17T14:40:26.712Z,7.60
2017-11-17T14:42:54.333Z,7.50
2017-11-17T14:45:21.889Z,7.50
2017-11-17T14:47:49.887Z,7.40
2017-11-17T14:50:17.439Z,7.40
2017-11-17T14:52:45.003Z,7.30
2017-11-17T14:55:12.575Z,7.30
2017-11-17T14:57:40.895Z,7.10
2017-11-17T15:00:08.744Z,7.10
2017-11-17T15:02:36.301Z,7.10
2017-11-17T15:05:03.838Z,7.00
2017-11-17T15:07:31.422Z,7.00
2017-11-17T15:09:59.010Z,6.90
2017-11-17T15:12:26.949Z,6.90
2017-11-17T15:14:54.518Z,6.80
2017-11-17T15:17:22.048Z,6.80
2017-11-17T15:19:49.615Z,6.70
2017-11-17T15:22:17.163Z,6.70
2017-11-17T15:24:45.022Z,6.60
2017-11-17T15:27:12.583Z,6.60
2017-11-17T15:29:40.895Z,6.50
2017-11-17T15:32:08.475Z,6.50
2017-11-17T15:34:36.016Z,6.50
2017-11-17T15:37:04.015Z,6.50
2017-11-17T15:39:31.556Z,6.40
2017-11-17T15:41:59.108Z,6.40
2017-11-17T15:44:26.687Z,6.30
2017-11-17T15:46:54.235Z,6.40
2017-11-17T15:49:22.236Z,6.30
2017-11-17T15:51:49.770Z,6.20
2017-11-17T15:54:17.335Z,6.20
2017-11-17T15:56:44.925Z,6.20
2017-11-17T15:59:13.289Z,6.10
2017-11-17T16:01:41.237Z,6.10
2017-11-17T16:04:08.807Z,6.10
2017-11-17T16:06:36.359Z,6.10
2017-11-17T16:09:03.950Z,6.10
2017-11-17T16:11:31.511Z,6.10
2017-11-17T16:14:00.155Z,6.10
2017-11-17T16:16:27.870Z,6.10
2017-11-17T16:18:55.448Z,6.10
2017-11-17T16:21:23.042Z,6.10
2017-11-17T16:23:50.638Z,6.10
2017-11-17T16:26:18.583Z,6.10
2017-11-17T16:28:46.122Z,6.10
2017-11-17T16:31:13.679Z,6.00
2017-11-17T16:33:41.261Z,6.00
2017-11-17T16:36:08.803Z,6.00
2017-11-17T16:38:36.668Z,6.00
2017-11-17T16:41:04.238Z,5.90
2017-11-17T16:43:31.791Z,5.90
2017-11-17T16:45:59.548Z,5.80
2017-11-17T16:48:27.088Z,5.80
2017-11-17T16:50:54.681Z,5.80
2017-11-17T16:53:23.846Z,5.70
2017-11-17T16:55:51.775Z,5.70
2017-11-17T16:58:20.098Z,5.70
2017-11-17T17:00:47.653Z,5.70
2017-11-17T17:03:15.315Z,5.70
2017-11-17T17:05:42.862Z,5.70
2017-11-17T17:08:10.887Z,5.60
2017-11-17T17:10:38.449Z,5.60
2017-11-17T17:13:06.770Z,5.60
2017-11-17T17:15:34.656Z,5.60
2017-11-17T17:18:02.206Z,5.60
2017-11-17T17:20:30.201Z,5.60
2017-11-17T17:22:57.744Z,5.60
2017-11-17T17:25:25.299Z,5.50
2017-11-17T17:27:52.891Z,5.50
2017-11-17T17:30:20.440Z,5.50
2017-11-17T17:32:48.515Z,5.40
2017-11-17T17:35:16.086Z,5.30
2017-11-17T17:37:43.630Z,5.30
2017-11-17T17:40:11.235Z,5.20
2017-11-17T17:42:38.779Z,5.20
2017-11-17T17:45:07.455Z,5.20
2017-11-17T17:47:35.015Z,5.20
2017-11-17T17:50:02.574Z,5.20
2017-11-17T17:52:30.347Z,5.20
2017-11-17T17:54:58.028Z,5.10
2017-11-17T17:57:26.147Z,5.10
2017-11-17T17:59:53.856Z,5.00
2017-11-17T18:02:22.267Z,5.00
2017-11-17T18:04:49.923Z,4.90
2017-11-17T18:07:17.490Z,5.00
2017-11-17T18:09:45.085Z,4.90
2017-11-17T18:12:12.928Z,4.90
2017-11-17T18:14:40.807Z,4.90
2017-11-17T18:17:08.425Z,4.80
2017-11-17T18:19:36.012Z,4.80
2017-11-17T18:22:03.815Z,4.80
2017-11-17T18:24:34.028Z,4.80
2017-11-17T18:27:01.947Z,4.70
2017-11-17T18:29:29.511Z,4.70
2017-11-17T18:31:57.082Z,4.70
2017-11-17T18:34:24.821Z,4.70
2017-11-17T18:36:52.469Z,4.70
2017-11-17T18:39:20.488Z,4.70
2017-11-17T18:41:48.083Z,4.60
2017-11-17T18:44:15.651Z,4.60
2017-11-17T18:46:44.031Z,4.60
2017-11-17T18:49:11.641Z,4.60
2017-11-17T18:51:42.470Z,4.50
2017-11-17T18:54:10.118Z,4.60
2017-11-17T18:56:37.803Z,4.50
2017-11-17T18:59:05.511Z,4.50
2017-11-17T19:01:34.088Z,4.50
2017-11-17T19:04:02.080Z,4.50
2017-11-17T19:06:29.640Z,4.50
2017-11-17T19:08:57.191Z,4.50
2017-11-17T19:11:25.670Z,4.40
2017-11-17T19:13:54.040Z,4.30
2017-11-17T19:16:22.790Z,4.30
2017-11-17T19:18:50.338Z,4.30
2017-11-17T19:21:17.900Z,4.30
2017-11-17T19:23:45.630Z,4.30
2017-11-17T19:26:13.194Z,4.30
2017-11-17T19:28:40.787Z,4.30
2017-11-17T19:31:08.332Z,4.30
2017-11-17T19:33:36.397Z,4.20
2017-11-17T19:36:04.028Z,4.20
2017-11-17T19:38:31.623Z,4.20
2017-11-17T19:40:59.232Z,4.20
2017-11-17T19:43:26.784Z,4.20
2017-11-17T19:45:54.840Z,4.20
2017-11-17T19:48:22.410Z,4.20
2017-11-17T19:50:50.099Z,4.20
2017-11-17T19:53:17.695Z,4.10
2017-11-17T19:55:45.259Z,4.10
2017-11-17T19:58:13.242Z,4.10
2017-11-17T20:00:40.899Z,4.10
2017-11-17T20:03:08.513Z,4.10
2017-11-17T20:05:37.510Z,4.10
2017-11-17T20:08:05.147Z,4.10
2017-11-17T20:10:33.056Z,4.10
2017-11-17T20:13:00.661Z,4.10
2017-11-17T20:15:31.867Z,4.00
2017-11-17T20:17:59.483Z,4.00
2017-11-17T20:20:27.034Z,4.00
2017-11-17T20:22:54.625Z,4.00
2017-11-17T20:25:22.528Z,4.00
2017-11-17T20:27:50.085Z,4.00
2017-11-17T20:30:17.650Z,4.00
2017-11-17T20:32:45.769Z,4.00
2017-11-17T20:35:14.105Z,3.90
2017-11-17T20:37:41.712Z,3.90
2017-11-17T20:40:10.042Z,3.90
2017-11-17T20:42:37.617Z,3.80
2017-11-17T20:45:07.123Z,3.80
2017-11-17T20:47:34.684Z,3.80
2017-11-17T20:50:03.005Z,3.80
2017-11-17T20:52:33.469Z,3.80
2017-11-17T20:55:01.023Z,3.70
2017-11-17T20:57:28.882Z,3.70
2017-11-17T20:59:56.418Z,3.70
2017-11-17T21:02:23.972Z,3.70
2017-11-17T21:04:51.615Z,3.70
2017-11-17T21:07:19.189Z,3.70
2017-11-17T21:09:47.831Z,3.80
2017-11-17T21:12:15.390Z,3.70
2017-11-17T21:14:42.977Z,3.80
2017-11-17T21:17:12.020Z,3.80
2017-11-17T21:19:39.594Z,3.80
2017-11-17T21:22:07.230Z,3.80
2017-11-17T21:24:34.885Z,3.80
2017-11-17T21:27:02.743Z,3.80
2017-11-17T21:29:30.308Z,3.80
2017-11-17T21:31:58.096Z,3.70
2017-11-17T21:34:25.770Z,3.70
2017-11-17T21:36:53.326Z,3.70
2017-11-17T21:39:21.200Z,3.60
2017-11-17T21:41:48.748Z,3.60
2017-11-17T21:44:16.312Z,3.60
2017-11-17T21:46:43.928Z,3.60
2017-11-17T21:49:11.477Z,3.60
2017-11-17T21:51:40.126Z,3.60
2017-11-17T21:54:07.702Z,3.50
2017-11-17T21:56:35.256Z,3.60
2017-11-17T21:59:02.858Z,3.60
2017-11-17T22:01:30.414Z,3.60
2017-11-17T22:03:58.535Z,3.60
2017-11-17T22:06:26.116Z,3.50
2017-11-17T22:08:54.456Z,3.50
2017-11-17T22:11:22.044Z,3.50
2017-11-17T22:13:49.630Z,3.50
2017-11-17T22:16:17.566Z,3.50
2017-11-17T22:18:45.141Z,3.50
2017-11-17T22:21:12.711Z,3.60
2017-11-17T22:23:41.084Z,3.60
2017-11-17T22:26:08.652Z,3.60
2017-11-17T22:28:36.682Z,3.70
2017-11-17T22:31:04.262Z,3.70
2017-11-17T22:33:31.957Z,3.70
2017-11-17T22:35:59.551Z,3.80
2017-11-17T22:38:27.124Z,3.90
2017-11-17T22:40:54.979Z,3.90
2017-11-17T22:43:22.545Z,4.00
2017-11-17T22:45:50.095Z,4.00
2017-11-17T22:48:17.703Z,4.00
2017-11-17T22:50:45.489Z,4.10
2017-11-17T22:53:13.519Z,4.10
2017-11-17T22:55:41.087Z,4.20
2017-11-17T22:58:08.711Z,4.20
2017-11-17T23:00:36.386Z,4.20
2017-11-17T23:03:03.934Z,4.10
2017-11-17T23:05:31.816Z,4.10
2017-11-17T23:07:59.640Z,4.00
2017-11-17T23:10:27.223Z,4.00
2017-11-17T23:12:55.471Z,3.90
2017-11-17T23:15:23.803Z,3.80
2017-11-17T23:17:51.771Z,3.80
2017-11-17T23:20:19.409Z,3.70
2017-11-17T23:22:47.540Z,3.60
2017-11-17T23:25:16.789Z,3.40
2017-11-17T23:27:44.595Z,3.40
2017-11-17T23:30:12.566Z,3.40
2017-11-17T23:32:40.905Z,3.40
2017-11-17T23:35:08.476Z,3.30
2017-11-17T23:37:36.546Z,3.40
2017-11-17T23:40:04.136Z,3.40
2017-11-17T23:42:31.739Z,3.40
2017-11-17T23:44:59.334Z,3.40
2017-11-17T23:47:26.927Z,3.40
2017-11-17T23:49:54.788Z,3.40
2017-11-17T23:52:22.345Z,3.40
2017-11-17T23:54:50.666Z,3.30
2017-11-17T23:57:18.347Z,3.30
2017-11-17T23:59:45.898Z,3.30
